Time;durP1;ratioP1;P1;durP2;ratioP2;P2;SDS_P1;SDS_P2;PMS_P1;PMS_P2;Temp;Humidity;BMP_temperature;BMP_pressure;BME280_temperature;BME280_humidity;BME280_pressure;Samples;Min_cycle;Max_cycle;Signal;HPM_P1;HPM_P2
2022/11/23 00:01:28;;;;;;;44.40;27.80;;;2.20;99.90;;;;;;5034375;28;20215;-56
2022/11/23 00:03:56;;;;;;;39.77;24.37;;;2.30;99.90;;;;;;5035838;28;20281;-54
2022/11/23 00:06:23;;;;;;;44.07;26.57;;;2.30;99.90;;;;;;5026249;28;20338;-55
2022/11/23 00:08:51;;;;;;;38.20;23.57;;;2.30;99.90;;;;;;5035486;28;20238;-55
2022/11/23 00:11:17;;;;;;;40.13;24.30;;;2.30;99.90;;;;;;5035823;28;20579;-54
2022/11/23 00:13:43;;;;;;;40.80;24.97;;;2.30;99.90;;;;;;5035720;28;20216;-56
2022/11/23 00:16:16;;;;;;;35.87;23.80;;;2.30;99.90;;;;;;5026343;28;20213;-55
2022/11/23 00:18:42;;;;;;;38.53;24.27;;;2.30;99.90;;;;;;5023422;28;20204;-54
2022/11/23 00:21:09;;;;;;;43.80;25.07;;;2.40;99.90;;;;;;5026597;28;20230;-54
2022/11/23 00:23:35;;;;;;;44.83;24.73;;;2.40;99.90;;;;;;5029836;28;20228;-54
2022/11/23 00:26:02;;;;;;;39.80;24.63;;;2.40;99.90;;;;;;5028478;28;20774;-54
2022/11/23 00:28:28;;;;;;;41.67;25.10;;;2.40;99.90;;;;;;5028743;28;20584;-53
2022/11/23 00:30:53;;;;;;;42.87;26.17;;;2.30;99.90;;;;;;5031331;28;20211;-54
2022/11/23 00:33:19;;;;;;;46.80;25.70;;;2.30;99.90;;;;;;5039543;28;20198;-54
2022/11/23 00:35:44;;;;;;;46.17;28.10;;;2.40;99.90;;;;;;5039046;28;20226;-54
2022/11/23 00:38:10;;;;;;;38.87;23.77;;;2.40;99.90;;;;;;5038604;28;20212;-54
2022/11/23 00:40:36;;;;;;;38.03;23.80;;;2.40;99.90;;;;;;5039429;28;20207;-54
2022/11/23 00:43:01;;;;;;;38.53;25.03;;;2.40;99.90;;;;;;5042917;28;20208;-56
2022/11/23 00:45:27;;;;;;;42.23;24.87;;;2.40;99.90;;;;;;5036214;28;20366;-55
2022/11/23 00:47:52;;;;;;;40.93;27.23;;;2.40;99.90;;;;;;5037282;28;20209;-54
2022/11/23 00:50:18;;;;;;;43.40;24.90;;;2.40;99.90;;;;;;5037777;28;20213;-54
2022/11/23 00:52:43;;;;;;;39.40;24.90;;;2.30;99.90;;;;;;5037226;28;20656;-54
2022/11/23 00:55:09;;;;;;;42.47;25.33;;;2.40;99.90;;;;;;5038754;28;20228;-55
2022/11/23 00:57:34;;;;;;;34.20;24.40;;;2.40;99.90;;;;;;5038626;28;20229;-55
2022/11/23 01:00:00;;;;;;;38.10;23.20;;;2.40;99.90;;;;;;5039008;28;20206;-54
2022/11/23 01:02:26;;;;;;;41.07;25.43;;;2.50;99.90;;;;;;5038537;28;20201;-54
2022/11/23 01:04:51;;;;;;;40.50;23.77;;;2.50;99.90;;;;;;5033356;28;20206;-54
2022/11/23 01:07:17;;;;;;;38.80;23.30;;;2.50;99.90;;;;;;5029502;28;20563;-54
2022/11/23 01:09:42;;;;;;;37.30;24.03;;;2.60;99.90;;;;;;5026735;28;20201;-54
2022/11/23 01:12:08;;;;;;;40.80;25.77;;;2.70;99.90;;;;;;5028524;28;20580;-55
2022/11/23 01:14:33;;;;;;;42.10;24.03;;;2.70;99.90;;;;;;5028266;28;20222;-55
2022/11/23 01:16:59;;;;;;;39.83;25.90;;;2.80;99.90;;;;;;5038008;28;20288;-55
2022/11/23 01:19:24;;;;;;;36.13;23.77;;;2.80;99.90;;;;;;5037566;28;20291;-55
2022/11/23 01:21:50;;;;;;;37.00;23.77;;;2.70;99.90;;;;;;5037352;28;20225;-56
2022/11/23 01:24:19;;;;;;;41.27;24.40;;;2.70;99.90;;;;;;5038491;28;20213;-54
2022/11/23 01:26:45;;;;;;;40.90;24.63;;;2.80;99.90;;;;;;5038402;28;20206;-54
2022/11/23 01:29:11;;;;;;;41.07;24.23;;;2.90;99.90;;;;;;5030149;28;20217;-56
2022/11/23 01:31:37;;;;;;;40.07;24.17;;;2.90;99.90;;;;;;5031772;28;20625;-57
2022/11/23 01:34:03;;;;;;;41.63;25.37;;;3.00;99.90;;;;;;5037167;28;20235;-56
2022/11/23 01:36:31;;;;;;;37.83;24.80;;;2.90;99.90;;;;;;5038238;28;20211;-56
2022/11/23 01:38:58;;;;;;;41.60;24.23;;;2.90;99.90;;;;;;5037833;28;20254;-55
2022/11/23 01:41:28;;;;;;;40.20;23.87;;;2.90;99.90;;;;;;5038273;28;20201;-56
2022/11/23 01:43:53;;;;;;;37.90;23.57;;;2.90;99.90;;;;;;5038183;28;20196;-55
2022/11/23 01:46:19;;;;;;;44.10;24.40;;;3.00;99.90;;;;;;5037935;28;20206;-56
2022/11/23 01:48:52;;;;;;;41.10;25.67;;;3.00;99.90;;;;;;5037849;28;22757;-56
2022/11/23 01:51:28;;;;;;;44.07;24.93;;;2.90;99.90;;;;;;5037813;28;20784;-56
2022/11/23 01:53:57;;;;;;;39.00;23.67;;;3.00;99.90;;;;;;5037908;28;20221;-55
2022/11/23 01:56:29;;;;;;;43.27;24.20;;;3.00;99.90;;;;;;5032732;28;20226;-55
2022/11/23 01:58:57;;;;;;;40.33;23.63;;;3.00;99.90;;;;;;5029504;28;20303;-55
2022/11/23 02:01:23;;;;;;;37.80;23.10;;;3.10;99.90;;;;;;5038145;28;20288;-55
2022/11/23 02:03:50;;;;;;;32.87;21.83;;;3.10;99.90;;;;;;5037531;28;20205;-55
2022/11/23 02:06:18;;;;;;;37.37;23.67;;;3.10;99.90;;;;;;5037588;28;20246;-55
2022/11/23 02:08:45;;;;;;;44.83;24.20;;;3.10;99.90;;;;;;5037240;28;20209;-55
2022/11/23 02:11:13;;;;;;;33.97;22.03;;;3.10;99.90;;;;;;5032356;28;20226;-55
2022/11/23 02:13:39;;;;;;;33.90;22.20;;;3.10;99.90;;;;;;5037600;28;20202;-56
2022/11/23 02:16:05;;;;;;;36.30;22.10;;;3.10;99.90;;;;;;5036878;28;20223;-56
2022/11/23 02:18:33;;;;;;;41.50;22.67;;;3.20;99.90;;;;;;5031135;28;20203;-55
2022/11/23 02:21:00;;;;;;;34.20;22.93;;;3.20;99.90;;;;;;5029617;28;20215;-56
2022/11/23 02:23:35;;;;;;;35.47;21.83;;;3.30;99.90;;;;;;5037336;28;20673;-56
2022/11/23 02:26:07;;;;;;;34.40;21.37;;;3.20;99.90;;;;;;5037142;28;20247;-56
2022/11/23 02:28:42;;;;;;;35.90;21.00;;;3.30;99.90;;;;;;5035361;28;20198;-56
2022/11/23 02:31:07;;;;;;;34.37;21.40;;;3.30;99.90;;;;;;5037253;28;20266;-56
2022/11/23 02:33:35;;;;;;;33.90;21.00;;;3.30;99.90;;;;;;5036915;28;20205;-56
2022/11/23 02:36:01;;;;;;;36.93;21.50;;;3.30;99.90;;;;;;5036702;28;20704;-56
2022/11/23 02:38:30;;;;;;;33.13;20.50;;;3.30;99.90;;;;;;5035121;28;20207;-56
2022/11/23 02:40:56;;;;;;;36.20;22.30;;;3.20;99.90;;;;;;5036883;28;20847;-56
2022/11/23 02:43:22;;;;;;;34.83;21.17;;;3.20;99.90;;;;;;5035746;28;20198;-56
2022/11/23 02:45:51;;;;;;;37.37;22.87;;;3.20;99.90;;;;;;5036660;28;20296;-56
2022/11/23 02:48:17;;;;;;;35.50;22.23;;;3.20;99.90;;;;;;5034850;28;20203;-56
2022/11/23 02:50:43;;;;;;;33.53;21.30;;;3.20;99.90;;;;;;5036857;28;20931;-55
2022/11/23 02:53:09;;;;;;;29.73;20.27;;;3.10;99.90;;;;;;5036697;28;20210;-56
2022/11/23 02:55:35;;;;;;;34.33;21.83;;;3.10;99.90;;;;;;5036573;28;20219;-56
2022/11/23 02:58:02;;;;;;;36.23;21.87;;;3.10;99.90;;;;;;5039109;28;20685;-56
2022/11/23 03:00:28;;;;;;;35.17;21.83;;;3.10;99.90;;;;;;5035605;28;20208;-56
2022/11/23 03:02:53;;;;;;;32.63;21.37;;;3.10;99.90;;;;;;5034616;28;20193;-56
2022/11/23 03:05:18;;;;;;;32.57;20.87;;;3.10;99.90;;;;;;5027036;28;20206;-56
2022/11/23 03:07:44;;;;;;;29.07;20.40;;;3.20;99.90;;;;;;5029253;28;20271;-56
2022/11/23 03:10:10;;;;;;;34.27;20.80;;;3.10;99.90;;;;;;5036008;28;20225;-56
2022/11/23 03:12:35;;;;;;;34.33;22.07;;;3.20;99.90;;;;;;5035720;28;20237;-55
2022/11/23 03:15:01;;;;;;;32.67;20.20;;;3.10;99.90;;;;;;5034687;28;20220;-56
2022/11/23 03:17:27;;;;;;;33.73;21.87;;;3.10;99.90;;;;;;5036768;28;20487;-56
2022/11/23 03:19:52;;;;;;;32.47;21.43;;;3.10;99.90;;;;;;5036315;28;20237;-56
2022/11/23 03:22:18;;;;;;;39.97;22.20;;;3.10;99.90;;;;;;5035445;28;20579;-56
2022/11/23 03:24:44;;;;;;;34.20;21.63;;;3.10;99.90;;;;;;5036302;28;20210;-56
2022/11/23 03:27:09;;;;;;;36.63;21.53;;;3.00;99.90;;;;;;5036260;28;20302;-56
2022/11/23 03:29:35;;;;;;;32.67;21.07;;;2.90;99.90;;;;;;5034307;28;20206;-56
2022/11/23 03:32:00;;;;;;;36.10;23.00;;;2.90;99.90;;;;;;5035481;28;20253;-56
2022/11/23 03:34:26;;;;;;;36.37;21.27;;;2.80;99.90;;;;;;5029430;28;20221;-56
2022/11/23 03:36:51;;;;;;;35.23;21.60;;;2.80;99.90;;;;;;5023924;28;20737;-56
2022/11/23 03:39:16;;;;;;;30.87;22.03;;;2.80;99.90;;;;;;5025110;28;20309;-56
2022/11/23 03:41:42;;;;;;;33.83;22.47;;;2.70;99.90;;;;;;5024588;28;20195;-56
2022/11/23 03:44:07;;;;;;;35.20;22.23;;;2.70;99.90;;;;;;5026785;28;20199;-56
2022/11/23 03:46:33;;;;;;;39.27;22.50;;;2.70;99.90;;;;;;5025742;28;20261;-55
2022/11/23 03:48:58;;;;;;;33.67;22.30;;;2.70;99.90;;;;;;5027200;28;20255;-56
2022/11/23 03:51:24;;;;;;;34.87;21.63;;;2.70;99.90;;;;;;5026618;28;20197;-56
2022/11/23 03:53:49;;;;;;;37.60;21.47;;;2.70;99.90;;;;;;5026446;28;20767;-56
2022/11/23 03:56:15;;;;;;;31.93;21.43;;;2.70;99.90;;;;;;5025020;28;20260;-56
2022/11/23 03:58:40;;;;;;;36.57;21.17;;;2.70;99.90;;;;;;5029764;28;20231;-55
2022/11/23 04:01:06;;;;;;;40.37;23.87;;;2.70;99.90;;;;;;5029724;28;20214;-56
2022/11/23 04:03:32;;;;;;;37.50;22.87;;;2.70;99.90;;;;;;5029479;28;20205;-56
2022/11/23 04:05:57;;;;;;;34.93;21.53;;;2.80;99.90;;;;;;5029873;28;20213;-56
2022/11/23 04:08:23;;;;;;;34.93;20.93;;;2.80;99.90;;;;;;5029329;28;20591;-55
2022/11/23 04:10:48;;;;;;;34.07;22.60;;;2.80;99.90;;;;;;5031199;28;20217;-56
2022/11/23 04:13:14;;;;;;;35.20;22.87;;;2.80;99.90;;;;;;5025754;28;20321;-55
2022/11/23 04:15:40;;;;;;;33.43;22.60;;;2.80;99.90;;;;;;5031808;28;20222;-55
2022/11/23 04:18:05;;;;;;;37.73;22.87;;;2.80;99.90;;;;;;5027101;28;20192;-55
2022/11/23 04:20:31;;;;;;;46.33;23.07;;;2.80;99.90;;;;;;5029678;28;20214;-55
2022/11/23 04:22:56;;;;;;;33.27;21.87;;;2.70;99.90;;;;;;5028805;28;20307;-55
2022/11/23 04:25:22;;;;;;;32.33;21.07;;;2.60;99.90;;;;;;5035610;28;20205;-55
2022/11/23 04:27:47;;;;;;;31.30;20.67;;;2.60;99.90;;;;;;5039570;28;20567;-55
2022/11/23 04:30:13;;;;;;;38.47;23.03;;;2.60;99.90;;;;;;5029285;28;20202;-55
2022/11/23 04:32:39;;;;;;;40.20;23.57;;;2.70;99.90;;;;;;5034748;28;20213;-55
2022/11/23 04:35:05;;;;;;;31.33;20.60;;;2.60;99.90;;;;;;5039375;28;20224;-55
2022/11/23 04:37:31;;;;;;;29.67;20.57;;;2.60;99.90;;;;;;5039526;28;20205;-55
2022/11/23 04:39:57;;;;;;;32.80;21.93;;;2.60;99.90;;;;;;5038568;28;20227;-55
2022/11/23 04:42:23;;;;;;;30.63;20.83;;;2.60;99.90;;;;;;5037533;28;20219;-55
2022/11/23 04:44:48;;;;;;;32.37;21.47;;;2.60;99.90;;;;;;5038612;28;20598;-55
2022/11/23 04:47:16;;;;;;;33.47;19.63;;;2.60;99.90;;;;;;5034945;28;20286;-56
2022/11/23 04:49:42;;;;;;;35.40;21.53;;;2.70;99.90;;;;;;5039240;28;20198;-55
2022/11/23 04:52:07;;;;;;;31.30;22.00;;;2.60;99.90;;;;;;5037412;28;20291;-56
2022/11/23 04:54:33;;;;;;;33.77;21.43;;;2.70;99.90;;;;;;5038652;28;20249;-55
2022/11/23 04:56:58;;;;;;;40.37;22.00;;;2.60;99.90;;;;;;5038361;28;20422;-57
2022/11/23 04:59:24;;;;;;;35.67;23.60;;;2.70;99.90;;;;;;5038734;28;20297;-56
2022/11/23 05:01:51;;;;;;;36.67;21.30;;;2.70;99.90;;;;;;5037427;28;20202;-56
2022/11/23 05:04:18;;;;;;;33.17;19.70;;;2.70;99.90;;;;;;5036574;28;20965;-56
2022/11/23 05:06:44;;;;;;;38.97;21.80;;;2.70;99.90;;;;;;5038742;28;20241;-56
2022/11/23 05:09:09;;;;;;;32.27;19.30;;;2.80;99.90;;;;;;5037436;28;20241;-56
2022/11/23 05:11:35;;;;;;;31.73;21.60;;;2.80;99.90;;;;;;5040934;28;20269;-56
2022/11/23 05:14:00;;;;;;;33.13;22.03;;;2.80;99.90;;;;;;5036810;28;20322;-56
2022/11/23 05:16:25;;;;;;;34.17;20.13;;;2.80;99.90;;;;;;5038467;28;20199;-56
2022/11/23 05:18:51;;;;;;;32.40;20.17;;;2.90;99.90;;;;;;5036633;28;20213;-56
2022/11/23 05:21:16;;;;;;;29.97;19.73;;;2.90;99.90;;;;;;5038461;28;20235;-56
2022/11/23 05:23:42;;;;;;;38.53;21.73;;;2.90;99.90;;;;;;5038602;28;20190;-55
2022/11/23 05:26:07;;;;;;;28.90;19.33;;;2.90;99.90;;;;;;5038650;28;20585;-56
2022/11/23 05:28:33;;;;;;;33.07;20.73;;;2.90;99.90;;;;;;5038770;28;20255;-55
2022/11/23 05:30:58;;;;;;;25.20;18.37;;;3.00;99.90;;;;;;5038161;28;20218;-56
2022/11/23 05:33:24;;;;;;;29.87;20.17;;;2.90;99.90;;;;;;5039662;28;20201;-55
2022/11/23 05:35:50;;;;;;;31.17;20.07;;;2.90;99.90;;;;;;5033899;28;20990;-55
2022/11/23 05:38:15;;;;;;;28.47;18.93;;;2.90;99.90;;;;;;5038450;28;20196;-55
2022/11/23 05:40:41;;;;;;;32.30;20.03;;;2.90;99.90;;;;;;5038396;28;20609;-55
2022/11/23 05:43:06;;;;;;;29.10;19.37;;;2.90;99.90;;;;;;5038396;28;20219;-55
2022/11/23 05:45:32;;;;;;;29.33;19.37;;;2.80;99.90;;;;;;5038291;28;20203;-55
2022/11/23 05:47:58;;;;;;;32.30;18.70;;;2.90;99.90;;;;;;5036437;28;20195;-56
2022/11/23 05:50:26;;;;;;;28.90;19.60;;;2.80;99.90;;;;;;5038525;28;20237;-56
2022/11/23 05:52:51;;;;;;;29.10;19.03;;;2.80;99.90;;;;;;5038169;28;20206;-56
2022/11/23 05:55:17;;;;;;;29.97;19.07;;;2.80;99.90;;;;;;5037110;28;20264;-56
2022/11/23 05:57:42;;;;;;;32.17;21.27;;;2.80;99.90;;;;;;5041773;28;20711;-55
2022/11/23 06:00:09;;;;;;;29.17;20.30;;;2.80;99.90;;;;;;5034577;28;20202;-56
2022/11/23 06:02:36;;;;;;;32.57;20.40;;;2.70;99.90;;;;;;5036739;28;20299;-56
2022/11/23 06:05:01;;;;;;;34.90;20.80;;;2.70;99.90;;;;;;5037851;28;20213;-56
2022/11/23 06:07:27;;;;;;;30.93;19.53;;;2.60;99.90;;;;;;5038020;28;20210;-55
2022/11/23 06:09:52;;;;;;;29.40;17.93;;;2.60;99.90;;;;;;5038559;28;20204;-55
2022/11/23 06:12:17;;;;;;;31.67;20.53;;;2.50;99.90;;;;;;5035351;28;20715;-55
2022/11/23 06:14:43;;;;;;;30.73;18.97;;;2.50;99.90;;;;;;5037900;28;20219;-56
2022/11/23 06:17:08;;;;;;;36.23;19.93;;;2.50;99.90;;;;;;5037649;28;20216;-56
2022/11/23 06:19:34;;;;;;;31.10;19.60;;;2.40;99.90;;;;;;5037132;28;20259;-56
2022/11/23 06:21:59;;;;;;;30.60;19.23;;;2.50;99.90;;;;;;5037508;28;20694;-55
2022/11/23 06:24:25;;;;;;;30.33;19.23;;;2.40;99.90;;;;;;5037593;28;20205;-55
2022/11/23 06:26:51;;;;;;;31.13;20.07;;;2.40;99.90;;;;;;5035819;28;20210;-56
2022/11/23 06:29:18;;;;;;;30.80;19.77;;;2.40;99.90;;;;;;5036127;28;20573;-56
2022/11/23 06:31:44;;;;;;;30.67;18.73;;;2.30;99.90;;;;;;5037032;28;20205;-54
2022/11/23 06:34:09;;;;;;;29.43;19.90;;;2.20;99.90;;;;;;5037422;28;20216;-54
2022/11/23 06:36:34;;;;;;;27.87;18.33;;;2.10;99.90;;;;;;5038750;28;20212;-54
2022/11/23 06:39:00;;;;;;;27.97;19.83;;;2.00;99.90;;;;;;5035707;28;20203;-54
2022/11/23 06:41:26;;;;;;;27.40;18.07;;;2.00;99.90;;;;;;5028041;28;20236;-55
2022/11/23 06:43:51;;;;;;;29.03;19.53;;;2.00;99.90;;;;;;5037105;28;20285;-56
2022/11/23 06:46:17;;;;;;;26.23;16.93;;;2.10;99.90;;;;;;5037316;28;20231;-56
2022/11/23 06:48:43;;;;;;;26.57;17.83;;;2.00;99.90;;;;;;5037009;28;20200;-54
2022/11/23 06:51:09;;;;;;;31.03;19.47;;;2.10;99.90;;;;;;5036839;28;20213;-56
2022/11/23 06:53:34;;;;;;;28.47;18.50;;;2.10;99.90;;;;;;5034820;28;20264;-54
2022/11/23 06:56:00;;;;;;;30.27;18.50;;;2.20;99.90;;;;;;5036609;28;20217;-56
2022/11/23 06:58:26;;;;;;;26.60;18.60;;;2.20;99.90;;;;;;5037050;28;20284;-56
2022/11/23 07:00:52;;;;;;;34.53;20.20;;;2.20;99.90;;;;;;5038528;28;20246;-57
2022/11/23 07:03:23;;;;;;;32.23;19.03;;;2.20;99.90;;;;;;5035903;28;20202;-56
2022/11/23 07:05:49;;;;;;;27.77;18.87;;;2.20;99.90;;;;;;5036508;28;20277;-54
2022/11/23 07:08:15;;;;;;;34.87;19.50;;;2.20;99.90;;;;;;5037541;28;20643;-56
2022/11/23 07:10:40;;;;;;;27.20;19.37;;;2.20;99.90;;;;;;5036994;28;20218;-56
2022/11/23 07:13:07;;;;;;;32.07;20.27;;;2.30;99.90;;;;;;5036983;28;20206;-56
2022/11/23 07:15:33;;;;;;;31.03;19.57;;;2.30;99.90;;;;;;5033711;28;20204;-57
2022/11/23 07:17:58;;;;;;;28.20;18.20;;;2.30;99.90;;;;;;5035712;28;20870;-56
2022/11/23 07:20:24;;;;;;;38.47;22.60;;;2.20;99.90;;;;;;5036641;28;20204;-56
2022/11/23 07:23:07;;;;;;;24.13;17.73;;;2.20;99.90;;;;;;5036652;28;20200;-56
2022/11/23 07:25:34;;;;;;;29.77;19.43;;;2.30;99.90;;;;;;5036519;28;20207;-56
2022/11/23 07:28:01;;;;;;;30.20;19.40;;;2.30;99.90;;;;;;5036642;28;20673;-56
2022/11/23 07:30:29;;;;;;;25.70;18.83;;;2.40;99.90;;;;;;5036258;28;20937;-57
2022/11/23 07:32:59;;;;;;;33.43;20.77;;;2.30;99.90;;;;;;5036162;28;20205;-57
2022/11/23 07:35:25;;;;;;;28.47;17.97;;;2.30;99.90;;;;;;5036437;28;20224;-56
2022/11/23 07:37:50;;;;;;;32.27;19.50;;;2.30;99.90;;;;;;5036408;28;20204;-57
2022/11/23 07:40:15;;;;;;;30.47;19.97;;;2.30;99.90;;;;;;5028958;28;20232;-56
2022/11/23 07:42:41;;;;;;;34.37;20.97;;;2.40;99.90;;;;;;5026637;28;20199;-57
2022/11/23 07:45:08;;;;;;;26.77;19.10;;;2.50;99.90;;;;;;5024570;28;20208;-58
2022/11/23 07:47:33;;;;;;;28.90;19.27;;;2.50;99.90;;;;;;5027827;28;20249;-56
2022/11/23 07:49:59;;;;;;;32.17;19.60;;;2.50;99.90;;;;;;5036555;28;20198;-56
2022/11/23 07:52:24;;;;;;;31.60;20.90;;;2.60;99.90;;;;;;5036283;28;20757;-54
2022/11/23 07:54:50;;;;;;;28.77;20.17;;;2.60;99.90;;;;;;5036392;28;20836;-56
2022/11/23 07:57:16;;;;;;;32.73;19.97;;;2.60;99.90;;;;;;5035875;28;20634;-56
2022/11/23 07:59:41;;;;;;;28.30;19.57;;;2.60;99.90;;;;;;5036489;28;20209;-56
2022/11/23 08:02:11;;;;;;;32.97;20.63;;;2.60;99.90;;;;;;5031868;28;20296;-56
2022/11/23 08:04:36;;;;;;;32.10;20.73;;;2.70;99.90;;;;;;5034487;28;20294;-56
2022/11/23 08:07:02;;;;;;;35.47;22.17;;;2.70;99.90;;;;;;5035882;28;20293;-56
2022/11/23 08:09:28;;;;;;;31.00;18.33;;;2.80;99.90;;;;;;5033915;28;20634;-57
2022/11/23 08:11:53;;;;;;;30.97;19.77;;;2.90;99.90;;;;;;5035812;28;20213;-54
2022/11/23 08:14:19;;;;;;;37.97;20.83;;;2.90;99.90;;;;;;5035464;28;20766;-55
2022/11/23 08:16:48;;;;;;;33.83;19.53;;;3.00;99.90;;;;;;5036177;28;20323;-55
2022/11/23 08:19:14;;;;;;;28.57;19.30;;;3.00;99.90;;;;;;5036031;28;20208;-55
2022/11/23 08:21:39;;;;;;;29.27;18.80;;;2.90;99.90;;;;;;5030679;28;20199;-55
2022/11/23 08:24:05;;;;;;;33.23;19.17;;;2.90;99.90;;;;;;5024735;28;20212;-55
2022/11/23 08:26:30;;;;;;;29.47;19.77;;;2.90;99.90;;;;;;5032561;28;20209;-55
2022/11/23 08:28:56;;;;;;;32.43;19.30;;;2.90;99.90;;;;;;5036134;28;20564;-56
2022/11/23 08:31:21;;;;;;;32.07;20.00;;;2.90;99.90;;;;;;5036136;28;20193;-55
2022/11/23 08:33:47;;;;;;;30.20;20.50;;;2.90;99.90;;;;;;5034323;28;20205;-56
2022/11/23 08:36:13;;;;;;;37.23;19.93;;;2.90;99.90;;;;;;5036072;28;20295;-57
2022/11/23 08:38:38;;;;;;;32.40;19.80;;;3.00;99.90;;;;;;5035987;28;20205;-56
2022/11/23 08:41:04;;;;;;;29.00;18.87;;;3.00;99.90;;;;;;5036117;28;20240;-56
2022/11/23 08:43:30;;;;;;;30.03;18.97;;;3.00;99.90;;;;;;5038969;28;20205;-56
2022/11/23 08:46:00;;;;;;;29.80;18.83;;;3.10;99.90;;;;;;5038361;28;20620;-57
2022/11/23 08:48:26;;;;;;;31.50;19.50;;;3.10;99.90;;;;;;5039642;28;20298;-57
2022/11/23 08:50:52;;;;;;;30.83;18.87;;;3.10;99.90;;;;;;5030166;28;20220;-57
2022/11/23 08:53:18;;;;;;;30.43;19.67;;;3.20;99.90;;;;;;5029435;28;20206;-57
2022/11/23 08:55:43;;;;;;;28.77;19.50;;;3.20;99.90;;;;;;5039328;28;20206;-57
2022/11/23 08:58:09;;;;;;;29.83;19.27;;;3.40;99.90;;;;;;5039450;28;20296;-56
2022/11/23 09:00:35;;;;;;;31.80;19.90;;;3.40;99.90;;;;;;5033582;28;20205;-57
2022/11/23 09:03:01;;;;;;;27.77;19.27;;;3.60;99.90;;;;;;5038312;28;20359;-54
2022/11/23 09:05:27;;;;;;;33.23;19.33;;;3.60;99.90;;;;;;5039635;28;20215;-54
2022/11/23 09:07:53;;;;;;;32.23;19.23;;;3.70;99.90;;;;;;5038989;28;20576;-55
2022/11/23 09:10:19;;;;;;;33.77;19.40;;;3.70;99.90;;;;;;5038264;28;20214;-54
2022/11/23 09:12:45;;;;;;;27.33;18.97;;;3.70;99.90;;;;;;5037627;28;20205;-55
2022/11/23 09:15:10;;;;;;;31.30;18.57;;;3.80;99.90;;;;;;5038940;28;20294;-56
2022/11/23 09:17:36;;;;;;;32.73;19.60;;;3.80;99.90;;;;;;5026980;28;20662;-54
2022/11/23 09:20:02;;;;;;;29.53;19.47;;;3.90;99.90;;;;;;5037105;28;20384;-55
2022/11/23 09:22:27;;;;;;;27.50;17.83;;;4.00;99.90;;;;;;5039226;28;20196;-55
2022/11/23 09:24:53;;;;;;;25.47;18.20;;;4.10;99.90;;;;;;5036989;28;20206;-55
2022/11/23 09:27:18;;;;;;;27.37;18.17;;;4.20;99.90;;;;;;5039347;28;20691;-54
2022/11/23 09:29:44;;;;;;;29.13;18.93;;;4.20;99.90;;;;;;5039116;28;20214;-55
2022/11/23 09:32:10;;;;;;;26.97;18.43;;;4.20;99.90;;;;;;5038795;28;20272;-55
2022/11/23 09:34:36;;;;;;;26.70;16.90;;;4.20;99.90;;;;;;5038806;28;20378;-55
2022/11/23 09:37:01;;;;;;;25.20;17.03;;;4.30;99.90;;;;;;5034714;28;20285;-55
2022/11/23 09:39:27;;;;;;;24.17;17.70;;;4.30;99.90;;;;;;5031097;28;21057;-55
2022/11/23 09:42:17;;;;;;;24.17;16.27;;;4.30;99.90;;;;;;5038649;28;20244;-55
2022/11/23 09:44:52;;;;;;;23.33;16.03;;;4.40;99.90;;;;;;5030420;28;20229;-55
2022/11/23 09:47:51;;;;;;;21.57;16.30;;;4.40;99.90;;;;;;5027631;28;20208;-55
2022/11/23 09:50:44;;;;;;;26.53;16.17;;;4.50;99.90;;;;;;5026629;28;20231;-54
2022/11/23 09:53:16;;;;;;;24.03;17.73;;;4.60;99.90;;;;;;5027196;28;20211;-54
2022/11/23 09:55:45;;;;;;;27.63;17.67;;;4.70;99.90;;;;;;5027892;28;20260;-55
2022/11/23 09:58:19;;;;;;;22.33;15.47;;;4.70;99.90;;;;;;5028435;28;20238;-54
2022/11/23 10:00:57;;;;;;;26.13;16.83;;;4.80;99.90;;;;;;5026133;28;20234;-55
2022/11/23 10:03:23;;;;;;;25.07;16.00;;;4.90;99.90;;;;;;5034770;28;20210;-55
2022/11/23 10:06:01;;;;;;;25.13;15.67;;;5.00;99.90;;;;;;5038425;28;20305;-55
2022/11/23 10:08:34;;;;;;;20.67;14.80;;;5.20;99.90;;;;;;5036221;28;20203;-55
2022/11/23 10:11:29;;;;;;;21.00;14.47;;;5.30;99.90;;;;;;5035259;28;20810;-55
2022/11/23 10:14:11;;;;;;;22.17;16.07;;;5.50;99.90;;;;;;5034777;28;20203;-57
2022/11/23 10:17:06;;;;;;;27.07;16.40;;;5.70;99.90;;;;;;5036493;28;20236;-70
2022/11/23 10:19:44;;;;;;;24.90;16.07;;;5.90;99.90;;;;;;5038101;28;20212;-57
2022/11/23 10:22:18;;;;;;;17.27;13.50;;;6.10;99.90;;;;;;5038055;28;20327;-57
2022/11/23 10:24:49;;;;;;;22.50;13.73;;;6.30;99.90;;;;;;5036071;28;20286;-57
2022/11/23 10:27:17;;;;;;;22.87;15.80;;;6.40;99.90;;;;;;5034212;28;20679;-56
2022/11/23 10:29:43;;;;;;;23.27;14.80;;;6.60;99.90;;;;;;5023633;28;20620;-57
2022/11/23 10:32:41;;;;;;;23.57;14.70;;;6.70;99.90;;;;;;5038084;28;20642;-57
2022/11/23 10:35:16;;;;;;;16.87;12.60;;;6.90;99.90;;;;;;5036561;28;20222;-57
2022/11/23 10:37:41;;;;;;;25.37;14.17;;;7.10;99.90;;;;;;5037735;28;20199;-56
2022/11/23 10:40:20;;;;;;;19.80;14.43;;;7.20;99.90;;;;;;5038008;28;20749;-56
2022/11/23 10:43:13;;;;;;;17.63;13.37;;;7.40;99.90;;;;;;5036030;28;20190;-56
2022/11/23 10:45:38;;;;;;;20.13;13.40;;;7.50;99.90;;;;;;5035683;28;20202;-57
2022/11/23 10:48:04;;;;;;;19.53;13.50;;;7.60;99.90;;;;;;5037775;28;20225;-58
2022/11/23 10:50:36;;;;;;;18.47;13.50;;;7.70;99.90;;;;;;5037416;28;20620;-57
2022/11/23 10:53:04;;;;;;;24.43;13.00;;;7.60;99.90;;;;;;5037844;28;20236;-56
2022/11/23 10:55:32;;;;;;;18.03;12.40;;;7.70;99.90;;;;;;5035601;28;20231;-58
2022/11/23 10:57:59;;;;;;;23.43;13.80;;;7.70;99.90;;;;;;5037424;28;20250;-58
2022/11/23 11:00:27;;;;;;;17.60;12.90;;;7.70;99.90;;;;;;5037510;28;20198;-58
2022/11/23 11:02:57;;;;;;;18.30;13.40;;;7.90;99.90;;;;;;5037510;28;20207;-58
2022/11/23 11:05:48;;;;;;;19.20;12.57;;;7.90;99.90;;;;;;5036945;28;20214;-58
2022/11/23 11:08:17;;;;;;;17.23;12.87;;;7.90;99.90;;;;;;5035159;28;20207;-58
2022/11/23 11:10:48;;;;;;;15.20;12.10;;;7.90;99.90;;;;;;5037361;28;20756;-57
2022/11/23 11:13:21;;;;;;;18.90;12.33;;;8.00;99.90;;;;;;5037354;28;20230;-57
2022/11/23 11:16:05;;;;;;;18.17;11.60;;;8.10;99.90;;;;;;5035246;28;20211;-58
2022/11/23 11:18:34;;;;;;;17.33;11.83;;;8.20;99.90;;;;;;5037181;28;20227;-58
2022/11/23 11:21:04;;;;;;;18.10;13.00;;;8.30;99.90;;;;;;5037066;28;20301;-58
2022/11/23 11:23:31;;;;;;;16.10;12.00;;;8.40;99.90;;;;;;5037558;28;20242;-57
2022/11/23 11:26:25;;;;;;;15.00;11.97;;;8.30;99.90;;;;;;5040193;28;20263;-58
2022/11/23 11:28:53;;;;;;;20.03;12.17;;;8.40;99.90;;;;;;5033324;28;20215;-58
2022/11/23 11:31:32;;;;;;;21.77;13.20;;;8.60;99.90;;;;;;5033657;28;20207;-57
2022/11/23 11:34:31;;;;;;;18.10;13.40;;;8.70;99.90;;;;;;5037266;28;20198;-57
2022/11/23 11:37:15;;;;;;;20.00;12.77;;;8.90;99.90;;;;;;5036953;28;20210;-56
2022/11/23 11:40:09;;;;;;;18.93;14.07;;;9.10;99.90;;;;;;5035675;28;20194;-57
2022/11/23 11:43:00;;;;;;;16.63;12.10;;;9.10;99.90;;;;;;5025069;28;20222;-58
2022/11/23 11:45:30;;;;;;;19.03;12.83;;;9.10;99.90;;;;;;5034811;28;20271;-57
2022/11/23 11:48:06;;;;;;;21.47;13.97;;;9.00;99.90;;;;;;5036185;28;20363;-58
2022/11/23 11:50:39;;;;;;;19.53;14.33;;;8.80;99.90;;;;;;5036864;28;20194;-56
2022/11/23 11:53:11;;;;;;;23.80;14.13;;;8.80;99.90;;;;;;5032367;28;20264;-54
2022/11/23 11:55:53;;;;;;;21.23;14.33;;;8.90;99.90;;;;;;5036733;28;20223;-55
2022/11/23 11:58:23;;;;;;;20.10;13.87;;;9.00;99.90;;;;;;5027819;28;20237;-55
2022/11/23 12:00:52;;;;;;;16.30;12.60;;;9.00;99.90;;;;;;5036583;28;20195;-54
2022/11/23 12:03:42;;;;;;;20.77;13.97;;;9.00;99.90;;;;;;5036672;28;20242;-54
2022/11/23 12:06:14;;;;;;;19.47;13.23;;;9.20;99.90;;;;;;5036617;28;20195;-54
2022/11/23 12:08:52;;;;;;;18.70;13.23;;;9.30;99.90;;;;;;5034941;28;20285;-56
2022/11/23 12:11:18;;;;;;;21.97;13.87;;;9.30;99.90;;;;;;5029239;28;20341;-54
2022/11/23 12:13:46;;;;;;;22.57;13.40;;;9.30;99.90;;;;;;5036455;28;20331;-56
2022/11/23 12:16:21;;;;;;;20.10;13.73;;;9.20;99.90;;;;;;5034380;28;20305;-56
2022/11/23 12:19:18;;;;;;;20.00;15.07;;;9.20;99.90;;;;;;5038994;28;20232;-56
2022/11/23 12:21:59;;;;;;;17.50;13.60;;;9.20;99.90;;;;;;5032070;28;20559;-56
2022/11/23 12:24:43;;;;;;;18.17;12.33;;;9.20;99.90;;;;;;5037873;28;20199;-59
2022/11/23 12:27:35;;;;;;;17.77;12.70;;;9.30;99.90;;;;;;5040343;28;20207;-56
2022/11/23 12:30:13;;;;;;;15.63;10.93;;;9.40;99.90;;;;;;5039826;28;20199;-55
2022/11/23 12:32:57;;;;;;;17.90;11.07;;;9.50;99.90;;;;;;5040002;28;20630;-55
2022/11/23 12:35:45;;;;;;;19.33;12.90;;;9.50;99.90;;;;;;5038184;28;20266;-54
2022/11/23 12:38:34;;;;;;;18.73;12.73;;;9.50;99.90;;;;;;5039730;28;20217;-55
2022/11/23 12:41:09;;;;;;;18.40;13.23;;;9.50;99.90;;;;;;5040028;28;20217;-55
2022/11/23 12:43:46;;;;;;;16.93;11.47;;;9.60;99.90;;;;;;5038400;28;20198;-55